Antwerp, Belgium

6:45 PM CEST on October 25, 2014 (GMT +0200)
Antwerpen | Change Station
CLOSE
Current Station
Personal Weather Station
Location: Antwerpen, ANTWERPEN
Elevation: 10 ft
Nearby Weather Stations

Elev 10 ft 51.23 °N, 4.45 °E | Updated 4 minutes ago

Overcast
Overcast
56.5 °F
Feels Like 56.5 °F
N
1.0
Wind Variable Wind from SW
Gusts 4.0 mph

Today
High -- | Low -- °F
--% Chance of Precip.
Yesterday
High -- | Low -- °F
Precip. -- in
8:22 AM 6:29 PM
Waxing Crescent, 3% visible
Pressure 30.12 in
Visibility 6.2 miles
Clouds Overcast 4400 ft
Dew Point 47 °F
Humidity 71%
Rainfall 0.00 in
Snow Depth Not available.
UV 0.1 out of 12
Pollen Not available.
Air Quality Not available.
Flu Activity Not available.
METAR EHWO 251625Z AUTO 23005KT 9999 OVC044 13/08 Q1020 BLU

More Conditions Fewer Conditions

Pressure 30.12 in
Visibility 6.2 miles
Clouds Overcast 4400 ft
Dew Point 47 °F
Humidity 71%
Rainfall 0.00 in
Snow Depth Not available.
UV 0.1 out of 12
Pollen Not available.
Air Quality Not available.
Flu Activity Not available.
METAR EHWO 251625Z AUTO 23005KT 9999 OVC044 13/08 Q1020 BLU

More Conditions Fewer Conditions

10-Day Weather Forecast

Almanac

Astronomy

Oct. 25, 2014 Rise Set
Actual Time 8:22 AM CEST 6:29 PM CEST
Civil Twilight 7:48 AM CEST 7:03 PM CEST
Nautical Twilight 7:09 AM CEST 7:42 PM CEST
Astronomical Twilight 6:30 AM CEST 8:20 PM CEST
Moon 9:53 AM CEST 7:31 PM CEST
Length of Visible Light 11h 15m
Length of Day
10h 06m
Tomorrow will be 3m 40s shorter.
Waxing Crescent, 3% of the Moon is Illuminated
Today
Waxing Crescent
Oct 30
First Quarter
Nov 6
Full
Nov 14
Last Quarter
Nov 22
New

Today's Extremes

Country Highs Country Lows

Community

WunderPhotos

Upload Photos

1,764,901 photos uploaded!

Nearby

Snow Depth

Not available.

Earthquake Activity

City Distance Mag. Time & Date
No recent earthquake activity has been reported nearby.
Minimum magnitude displayed is 2.5.

Coastal Water Temperatures

Place Temperature
No Stations Reporting

Nearby Weather Stations